sensor_id;sensor_type;location;lat;lon;timestamp;P1;durP1;ratioP1;P2;durP2;ratioP2
2618;SDS011;1319;52.346;13.096;2023-03-31T00:00:27;8.93;;;2.80;;
2618;SDS011;1319;52.346;13.096;2023-03-31T00:02:52;4.43;;;2.30;;
2618;SDS011;1319;52.346;13.096;2023-03-31T00:05:18;6.27;;;2.43;;
2618;SDS011;1319;52.346;13.096;2023-03-31T00:07:45;5.27;;;2.30;;
2618;SDS011;1319;52.346;13.096;2023-03-31T00:10:12;4.30;;;2.37;;
2618;SDS011;1319;52.346;13.096;2023-03-31T00:12:38;3.27;;;2.30;;
2618;SDS011;1319;52.346;13.096;2023-03-31T00:15:03;10.23;;;2.37;;
2618;SDS011;1319;52.346;13.096;2023-03-31T00:17:29;4.60;;;2.33;;
2618;SDS011;1319;52.346;13.096;2023-03-31T00:19:57;4.43;;;2.40;;
2618;SDS011;1319;52.346;13.096;2023-03-31T00:22:24;5.83;;;2.17;;
2618;SDS011;1319;52.346;13.096;2023-03-31T00:24:51;5.60;;;2.30;;
2618;SDS011;1319;52.346;13.096;2023-03-31T00:27:16;2.90;;;2.10;;
2618;SDS011;1319;52.346;13.096;2023-03-31T00:29:42;6.30;;;2.30;;
2618;SDS011;1319;52.346;13.096;2023-03-31T00:32:07;2.63;;;2.10;;
2618;SDS011;1319;52.346;13.096;2023-03-31T00:34:32;5.60;;;2.10;;
2618;SDS011;1319;52.346;13.096;2023-03-31T00:36:58;7.53;;;2.30;;
2618;SDS011;1319;52.346;13.096;2023-03-31T00:39:26;3.27;;;2.33;;
2618;SDS011;1319;52.346;13.096;2023-03-31T00:41:55;7.07;;;2.30;;
2618;SDS011;1319;52.346;13.096;2023-03-31T00:44:22;11.17;;;2.30;;
2618;SDS011;1319;52.346;13.096;2023-03-31T00:49:24;6.47;;;2.13;;
2618;SDS011;1319;52.346;13.096;2023-03-31T00:51:51;4.60;;;2.70;;
2618;SDS011;1319;52.346;13.096;2023-03-31T00:54:18;8.97;;;2.40;;
2618;SDS011;1319;52.346;13.096;2023-03-31T00:56:45;4.47;;;2.30;;
2618;SDS011;1319;52.346;13.096;2023-03-31T00:59:14;4.07;;;2.13;;
2618;SDS011;1319;52.346;13.096;2023-03-31T01:01:39;5.57;;;2.20;;
2618;SDS011;1319;52.346;13.096;2023-03-31T01:04:07;4.13;;;2.07;;
2618;SDS011;1319;52.346;13.096;2023-03-31T01:06:33;7.00;;;2.20;;
2618;SDS011;1319;52.346;13.096;2023-03-31T01:09:02;6.77;;;2.00;;
2618;SDS011;1319;52.346;13.096;2023-03-31T01:11:30;3.73;;;1.80;;
2618;SDS011;1319;52.346;13.096;2023-03-31T01:13:56;7.13;;;2.03;;
2618;SDS011;1319;52.346;13.096;2023-03-31T01:16:22;5.60;;;2.20;;
2618;SDS011;1319;52.346;13.096;2023-03-31T01:18:47;7.23;;;2.20;;
2618;SDS011;1319;52.346;13.096;2023-03-31T01:49:23;2.07;;;1.80;;
2618;SDS011;1319;52.346;13.096;2023-03-31T01:52:12;5.83;;;1.70;;
2618;SDS011;1319;52.346;13.096;2023-03-31T01:57:27;5.63;;;1.70;;
2618;SDS011;1319;52.346;13.096;2023-03-31T02:00:00;5.67;;;1.90;;
2618;SDS011;1319;52.346;13.096;2023-03-31T02:02:28;4.23;;;1.93;;
2618;SDS011;1319;52.346;13.096;2023-03-31T02:07:58;5.13;;;1.50;;
2618;SDS011;1319;52.346;13.096;2023-03-31T02:10:26;4.07;;;1.60;;
2618;SDS011;1319;52.346;13.096;2023-03-31T02:12:53;6.07;;;1.90;;
2618;SDS011;1319;52.346;13.096;2023-03-31T02:15:20;5.13;;;1.70;;
2618;SDS011;1319;52.346;13.096;2023-03-31T02:17:48;2.00;;;1.50;;
2618;SDS011;1319;52.346;13.096;2023-03-31T02:20:16;4.07;;;1.43;;
2618;SDS011;1319;52.346;13.096;2023-03-31T02:22:43;5.53;;;1.53;;
2618;SDS011;1319;52.346;13.096;2023-03-31T02:25:10;4.63;;;1.90;;
2618;SDS011;1319;52.346;13.096;2023-03-31T02:27:39;7.97;;;1.63;;
2618;SDS011;1319;52.346;13.096;2023-03-31T02:30:04;2.43;;;1.27;;
2618;SDS011;1319;52.346;13.096;2023-03-31T02:32:32;4.57;;;1.50;;
2618;SDS011;1319;52.346;13.096;2023-03-31T02:35:00;5.57;;;1.70;;
2618;SDS011;1319;52.346;13.096;2023-03-31T02:37:25;3.53;;;1.40;;
2618;SDS011;1319;52.346;13.096;2023-03-31T02:39:52;3.33;;;1.60;;
2618;SDS011;1319;52.346;13.096;2023-03-31T02:42:18;7.50;;;1.70;;
2618;SDS011;1319;52.346;13.096;2023-03-31T02:44:43;5.47;;;1.70;;
2618;SDS011;1319;52.346;13.096;2023-03-31T02:47:11;3.60;;;1.63;;
2618;SDS011;1319;52.346;13.096;2023-03-31T02:49:38;5.10;;;1.90;;
2618;SDS011;1319;52.346;13.096;2023-03-31T02:57:07;3.93;;;1.60;;
2618;SDS011;1319;52.346;13.096;2023-03-31T03:04:59;3.63;;;1.60;;
2618;SDS011;1319;52.346;13.096;2023-03-31T03:15:38;5.73;;;2.13;;
2618;SDS011;1319;52.346;13.096;2023-03-31T03:18:06;5.77;;;1.50;;
2618;SDS011;1319;52.346;13.096;2023-03-31T03:20:31;6.00;;;1.70;;
2618;SDS011;1319;52.346;13.096;2023-03-31T03:23:00;5.50;;;2.00;;
2618;SDS011;1319;52.346;13.096;2023-03-31T03:25:25;3.83;;;1.80;;
2618;SDS011;1319;52.346;13.096;2023-03-31T03:27:50;3.50;;;1.70;;
2618;SDS011;1319;52.346;13.096;2023-03-31T03:30:17;7.30;;;1.90;;
2618;SDS011;1319;52.346;13.096;2023-03-31T03:32:42;6.03;;;1.90;;
2618;SDS011;1319;52.346;13.096;2023-03-31T03:35:08;6.50;;;2.10;;
2618;SDS011;1319;52.346;13.096;2023-03-31T03:37:33;4.23;;;1.90;;
2618;SDS011;1319;52.346;13.096;2023-03-31T03:39:58;6.03;;;1.80;;
2618;SDS011;1319;52.346;13.096;2023-03-31T03:42:24;4.30;;;1.70;;
2618;SDS011;1319;52.346;13.096;2023-03-31T03:44:49;3.80;;;1.73;;
2618;SDS011;1319;52.346;13.096;2023-03-31T03:47:15;3.67;;;1.60;;
2618;SDS011;1319;52.346;13.096;2023-03-31T03:49:41;4.57;;;1.67;;
2618;SDS011;1319;52.346;13.096;2023-03-31T03:52:06;4.90;;;1.70;;
2618;SDS011;1319;52.346;13.096;2023-03-31T03:54:32;5.30;;;1.70;;
2618;SDS011;1319;52.346;13.096;2023-03-31T03:56:57;3.37;;;1.93;;
2618;SDS011;1319;52.346;13.096;2023-03-31T03:59:22;3.93;;;1.97;;
2618;SDS011;1319;52.346;13.096;2023-03-31T04:01:48;5.10;;;2.13;;
2618;SDS011;1319;52.346;13.096;2023-03-31T04:04:13;8.17;;;1.93;;
2618;SDS011;1319;52.346;13.096;2023-03-31T04:06:38;5.60;;;1.87;;
2618;SDS011;1319;52.346;13.096;2023-03-31T04:09:03;7.10;;;1.87;;
2618;SDS011;1319;52.346;13.096;2023-03-31T04:11:29;4.53;;;2.10;;
2618;SDS011;1319;52.346;13.096;2023-03-31T04:13:54;4.50;;;1.90;;
2618;SDS011;1319;52.346;13.096;2023-03-31T04:16:20;5.73;;;2.03;;
2618;SDS011;1319;52.346;13.096;2023-03-31T04:18:47;4.90;;;1.90;;
2618;SDS011;1319;52.346;13.096;2023-03-31T04:21:12;6.80;;;2.47;;
2618;SDS011;1319;52.346;13.096;2023-03-31T04:23:46;5.10;;;1.93;;
2618;SDS011;1319;52.346;13.096;2023-03-31T04:26:12;5.87;;;1.97;;
2618;SDS011;1319;52.346;13.096;2023-03-31T04:28:37;5.10;;;2.00;;
2618;SDS011;1319;52.346;13.096;2023-03-31T04:31:07;8.93;;;2.10;;
2618;SDS011;1319;52.346;13.096;2023-03-31T04:33:33;3.40;;;1.80;;
2618;SDS011;1319;52.346;13.096;2023-03-31T04:36:02;9.37;;;2.40;;
2618;SDS011;1319;52.346;13.096;2023-03-31T04:38:31;3.40;;;2.17;;
2618;SDS011;1319;52.346;13.096;2023-03-31T04:40:58;5.03;;;1.90;;
2618;SDS011;1319;52.346;13.096;2023-03-31T04:43:23;3.77;;;1.73;;
2618;SDS011;1319;52.346;13.096;2023-03-31T04:45:48;5.17;;;2.10;;
2618;SDS011;1319;52.346;13.096;2023-03-31T04:48:13;7.73;;;1.90;;
2618;SDS011;1319;52.346;13.096;2023-03-31T04:50:38;4.73;;;1.93;;
2618;SDS011;1319;52.346;13.096;2023-03-31T04:53:04;7.70;;;2.33;;
2618;SDS011;1319;52.346;13.096;2023-03-31T04:55:29;7.43;;;2.27;;
2618;SDS011;1319;52.346;13.096;2023-03-31T04:57:55;6.10;;;2.00;;
2618;SDS011;1319;52.346;13.096;2023-03-31T05:00:21;7.37;;;2.10;;
2618;SDS011;1319;52.346;13.096;2023-03-31T05:02:46;3.10;;;1.83;;
2618;SDS011;1319;52.346;13.096;2023-03-31T05:05:11;8.37;;;2.00;;
2618;SDS011;1319;52.346;13.096;2023-03-31T05:07:37;4.03;;;1.97;;
2618;SDS011;1319;52.346;13.096;2023-03-31T05:10:02;7.20;;;2.60;;
2618;SDS011;1319;52.346;13.096;2023-03-31T05:12:27;6.43;;;2.47;;
2618;SDS011;1319;52.346;13.096;2023-03-31T05:14:53;5.30;;;2.60;;
2618;SDS011;1319;52.346;13.096;2023-03-31T05:17:18;5.77;;;2.27;;
2618;SDS011;1319;52.346;13.096;2023-03-31T05:19:43;7.07;;;2.40;;
2618;SDS011;1319;52.346;13.096;2023-03-31T05:22:08;6.87;;;2.23;;
2618;SDS011;1319;52.346;13.096;2023-03-31T05:24:34;6.13;;;2.50;;
2618;SDS011;1319;52.346;13.096;2023-03-31T05:26:59;3.23;;;2.00;;
2618;SDS011;1319;52.346;13.096;2023-03-31T05:29:24;9.33;;;3.00;;
2618;SDS011;1319;52.346;13.096;2023-03-31T05:31:50;6.73;;;2.30;;
2618;SDS011;1319;52.346;13.096;2023-03-31T05:34:17;5.17;;;2.10;;
2618;SDS011;1319;52.346;13.096;2023-03-31T05:36:42;6.67;;;2.53;;
2618;SDS011;1319;52.346;13.096;2023-03-31T05:39:07;6.17;;;2.30;;
2618;SDS011;1319;52.346;13.096;2023-03-31T05:41:33;6.90;;;2.20;;
2618;SDS011;1319;52.346;13.096;2023-03-31T05:43:58;7.00;;;2.60;;
2618;SDS011;1319;52.346;13.096;2023-03-31T05:46:24;7.37;;;3.17;;
2618;SDS011;1319;52.346;13.096;2023-03-31T05:48:50;6.23;;;2.20;;
2618;SDS011;1319;52.346;13.096;2023-03-31T05:51:15;4.37;;;2.03;;
2618;SDS011;1319;52.346;13.096;2023-03-31T05:53:41;4.03;;;2.17;;
2618;SDS011;1319;52.346;13.096;2023-03-31T05:56:06;8.37;;;2.70;;
2618;SDS011;1319;52.346;13.096;2023-03-31T05:58:35;9.17;;;2.40;;
2618;SDS011;1319;52.346;13.096;2023-03-31T06:01:04;8.57;;;2.60;;
2618;SDS011;1319;52.346;13.096;2023-03-31T06:03:31;9.50;;;2.93;;
2618;SDS011;1319;52.346;13.096;2023-03-31T06:05:56;6.03;;;2.43;;
2618;SDS011;1319;52.346;13.096;2023-03-31T06:08:22;6.07;;;2.97;;
2618;SDS011;1319;52.346;13.096;2023-03-31T06:10:47;4.00;;;2.47;;
2618;SDS011;1319;52.346;13.096;2023-03-31T06:13:13;8.30;;;3.03;;
2618;SDS011;1319;52.346;13.096;2023-03-31T06:15:38;9.37;;;2.63;;
2618;SDS011;1319;52.346;13.096;2023-03-31T06:18:03;6.90;;;2.60;;
2618;SDS011;1319;52.346;13.096;2023-03-31T06:20:31;9.77;;;3.73;;
2618;SDS011;1319;52.346;13.096;2023-03-31T06:22:56;5.07;;;2.40;;
2618;SDS011;1319;52.346;13.096;2023-03-31T06:25:21;8.63;;;2.73;;
2618;SDS011;1319;52.346;13.096;2023-03-31T06:27:47;5.87;;;2.70;;
2618;SDS011;1319;52.346;13.096;2023-03-31T06:30:12;5.40;;;2.50;;
2618;SDS011;1319;52.346;13.096;2023-03-31T06:32:37;7.13;;;2.40;;
2618;SDS011;1319;52.346;13.096;2023-03-31T06:35:02;6.93;;;2.87;;
2618;SDS011;1319;52.346;13.096;2023-03-31T06:37:28;8.87;;;2.57;;
2618;SDS011;1319;52.346;13.096;2023-03-31T06:39:53;4.73;;;2.50;;
2618;SDS011;1319;52.346;13.096;2023-03-31T06:42:18;5.90;;;2.07;;
2618;SDS011;1319;52.346;13.096;2023-03-31T06:44:43;8.67;;;2.47;;
2618;SDS011;1319;52.346;13.096;2023-03-31T06:47:08;6.73;;;2.80;;
2618;SDS011;1319;52.346;13.096;2023-03-31T06:49:34;5.87;;;2.40;;
2618;SDS011;1319;52.346;13.096;2023-03-31T06:51:59;8.33;;;3.10;;
2618;SDS011;1319;52.346;13.096;2023-03-31T06:54:25;5.57;;;2.97;;
2618;SDS011;1319;52.346;13.096;2023-03-31T06:56:50;7.00;;;2.50;;
2618;SDS011;1319;52.346;13.096;2023-03-31T06:59:15;6.57;;;2.30;;
2618;SDS011;1319;52.346;13.096;2023-03-31T07:01:40;6.73;;;2.17;;
2618;SDS011;1319;52.346;13.096;2023-03-31T07:04:06;5.33;;;2.00;;
2618;SDS011;1319;52.346;13.096;2023-03-31T07:06:31;7.10;;;2.37;;
2618;SDS011;1319;52.346;13.096;2023-03-31T07:08:57;7.07;;;2.23;;
2618;SDS011;1319;52.346;13.096;2023-03-31T07:11:22;10.00;;;2.30;;
2618;SDS011;1319;52.346;13.096;2023-03-31T07:13:47;7.63;;;2.40;;
2618;SDS011;1319;52.346;13.096;2023-03-31T07:16:12;4.40;;;2.20;;
2618;SDS011;1319;52.346;13.096;2023-03-31T07:18:38;8.53;;;2.57;;
2618;SDS011;1319;52.346;13.096;2023-03-31T07:21:06;7.37;;;2.40;;
2618;SDS011;1319;52.346;13.096;2023-03-31T07:23:32;6.20;;;2.40;;
2618;SDS011;1319;52.346;13.096;2023-03-31T07:25:57;5.23;;;2.20;;
2618;SDS011;1319;52.346;13.096;2023-03-31T07:28:26;3.40;;;2.40;;
2618;SDS011;1319;52.346;13.096;2023-03-31T07:30:51;6.77;;;2.40;;
2618;SDS011;1319;52.346;13.096;2023-03-31T07:33:16;8.30;;;2.70;;
2618;SDS011;1319;52.346;13.096;2023-03-31T07:35:42;8.27;;;2.30;;
2618;SDS011;1319;52.346;13.096;2023-03-31T07:38:10;8.10;;;2.30;;
2618;SDS011;1319;52.346;13.096;2023-03-31T07:40:36;8.57;;;2.30;;
2618;SDS011;1319;52.346;13.096;2023-03-31T07:43:02;6.97;;;2.50;;
2618;SDS011;1319;52.346;13.096;2023-03-31T07:45:27;5.30;;;2.03;;
2618;SDS011;1319;52.346;13.096;2023-03-31T07:47:52;7.40;;;2.30;;
2618;SDS011;1319;52.346;13.096;2023-03-31T07:50:18;7.90;;;2.23;;
2618;SDS011;1319;52.346;13.096;2023-03-31T07:52:43;5.40;;;2.53;;
2618;SDS011;1319;52.346;13.096;2023-03-31T07:55:08;6.30;;;2.23;;
2618;SDS011;1319;52.346;13.096;2023-03-31T07:57:34;6.17;;;2.00;;
2618;SDS011;1319;52.346;13.096;2023-03-31T08:00:00;3.80;;;1.90;;
2618;SDS011;1319;52.346;13.096;2023-03-31T08:02:26;4.93;;;1.73;;
2618;SDS011;1319;52.346;13.096;2023-03-31T08:04:51;7.17;;;2.10;;
2618;SDS011;1319;52.346;13.096;2023-03-31T08:07:16;7.53;;;2.23;;
2618;SDS011;1319;52.346;13.096;2023-03-31T08:09:42;4.27;;;1.90;;
2618;SDS011;1319;52.346;13.096;2023-03-31T08:12:08;10.70;;;2.20;;
2618;SDS011;1319;52.346;13.096;2023-03-31T08:14:33;7.20;;;2.10;;
2618;SDS011;1319;52.346;13.096;2023-03-31T08:16:58;5.40;;;2.00;;
2618;SDS011;1319;52.346;13.096;2023-03-31T08:19:24;7.53;;;2.23;;
2618;SDS011;1319;52.346;13.096;2023-03-31T08:21:49;9.30;;;2.20;;
2618;SDS011;1319;52.346;13.096;2023-03-31T08:24:16;4.07;;;1.67;;
2618;SDS011;1319;52.346;13.096;2023-03-31T08:26:41;5.90;;;1.90;;
2618;SDS011;1319;52.346;13.096;2023-03-31T08:29:06;6.13;;;1.77;;
2618;SDS011;1319;52.346;13.096;2023-03-31T08:31:32;3.17;;;1.80;;
2618;SDS011;1319;52.346;13.096;2023-03-31T08:33:57;4.67;;;1.90;;
2618;SDS011;1319;52.346;13.096;2023-03-31T08:36:22;4.47;;;2.00;;
2618;SDS011;1319;52.346;13.096;2023-03-31T08:38:47;6.10;;;1.70;;
2618;SDS011;1319;52.346;13.096;2023-03-31T08:43:42;7.13;;;1.80;;
2618;SDS011;1319;52.346;13.096;2023-03-31T08:46:09;3.97;;;1.97;;
2618;SDS011;1319;52.346;13.096;2023-03-31T08:48:37;4.33;;;1.80;;
2618;SDS011;1319;52.346;13.096;2023-03-31T08:51:15;4.83;;;2.00;;
2618;SDS011;1319;52.346;13.096;2023-03-31T08:53:48;4.53;;;1.60;;
2618;SDS011;1319;52.346;13.096;2023-03-31T08:56:15;6.80;;;1.70;;
2618;SDS011;1319;52.346;13.096;2023-03-31T08:58:42;5.70;;;2.00;;
2618;SDS011;1319;52.346;13.096;2023-03-31T09:04:03;4.60;;;1.60;;
2618;SDS011;1319;52.346;13.096;2023-03-31T09:06:27;3.80;;;1.57;;
2618;SDS011;1319;52.346;13.096;2023-03-31T09:08:54;4.57;;;1.63;;
2618;SDS011;1319;52.346;13.096;2023-03-31T09:13:59;7.33;;;1.90;;
2618;SDS011;1319;52.346;13.096;2023-03-31T09:16:29;4.13;;;1.67;;
2618;SDS011;1319;52.346;13.096;2023-03-31T09:19:00;5.47;;;1.80;;
2618;SDS011;1319;52.346;13.096;2023-03-31T09:21:42;3.37;;;1.40;;
2618;SDS011;1319;52.346;13.096;2023-03-31T09:26:39;3.90;;;1.60;;
2618;SDS011;1319;52.346;13.096;2023-03-31T09:29:09;3.03;;;1.60;;
2618;SDS011;1319;52.346;13.096;2023-03-31T09:31:38;3.40;;;1.77;;
2618;SDS011;1319;52.346;13.096;2023-03-31T09:34:09;2.53;;;1.67;;
2618;SDS011;1319;52.346;13.096;2023-03-31T09:36:36;1.80;;;1.50;;
2618;SDS011;1319;52.346;13.096;2023-03-31T09:39:01;3.13;;;1.40;;
2618;SDS011;1319;52.346;13.096;2023-03-31T09:41:27;2.77;;;1.77;;
2618;SDS011;1319;52.346;13.096;2023-03-31T09:43:53;1.70;;;1.60;;
2618;SDS011;1319;52.346;13.096;2023-03-31T09:46:20;2.50;;;1.90;;
2618;SDS011;1319;52.346;13.096;2023-03-31T09:51:56;3.77;;;1.70;;
2618;SDS011;1319;52.346;13.096;2023-03-31T09:54:33;2.50;;;1.50;;
2618;SDS011;1319;52.346;13.096;2023-03-31T09:56:59;2.60;;;1.63;;
2618;SDS011;1319;52.346;13.096;2023-03-31T09:59:31;3.43;;;1.93;;
2618;SDS011;1319;52.346;13.096;2023-03-31T10:01:58;3.93;;;2.00;;
2618;SDS011;1319;52.346;13.096;2023-03-31T10:04:27;6.03;;;1.70;;
2618;SDS011;1319;52.346;13.096;2023-03-31T10:06:53;4.67;;;1.83;;
2618;SDS011;1319;52.346;13.096;2023-03-31T10:09:19;2.17;;;1.63;;
2618;SDS011;1319;52.346;13.096;2023-03-31T10:11:56;4.23;;;1.93;;
2618;SDS011;1319;52.346;13.096;2023-03-31T10:14:40;3.97;;;1.77;;
2618;SDS011;1319;52.346;13.096;2023-03-31T10:17:12;7.43;;;2.10;;
2618;SDS011;1319;52.346;13.096;2023-03-31T10:19:38;2.57;;;1.90;;
2618;SDS011;1319;52.346;13.096;2023-03-31T10:24:45;3.50;;;1.63;;
2618;SDS011;1319;52.346;13.096;2023-03-31T10:27:17;3.30;;;1.80;;
2618;SDS011;1319;52.346;13.096;2023-03-31T10:29:45;6.10;;;1.60;;
2618;SDS011;1319;52.346;13.096;2023-03-31T10:34:40;3.77;;;1.67;;
2618;SDS011;1319;52.346;13.096;2023-03-31T10:37:06;4.27;;;1.80;;
2618;SDS011;1319;52.346;13.096;2023-03-31T10:39:31;4.13;;;1.70;;
2618;SDS011;1319;52.346;13.096;2023-03-31T10:41:57;3.60;;;1.57;;
2618;SDS011;1319;52.346;13.096;2023-03-31T10:44:30;3.37;;;1.37;;
2618;SDS011;1319;52.346;13.096;2023-03-31T10:46:56;5.50;;;2.10;;
2618;SDS011;1319;52.346;13.096;2023-03-31T10:49:27;5.27;;;1.73;;
2618;SDS011;1319;52.346;13.096;2023-03-31T10:51:56;3.23;;;1.40;;
2618;SDS011;1319;52.346;13.096;2023-03-31T10:54:22;4.57;;;1.50;;
2618;SDS011;1319;52.346;13.096;2023-03-31T10:56:50;4.10;;;1.70;;
2618;SDS011;1319;52.346;13.096;2023-03-31T11:07:37;5.07;;;1.50;;
2618;SDS011;1319;52.346;13.096;2023-03-31T11:13:20;7.27;;;2.20;;
2618;SDS011;1319;52.346;13.096;2023-03-31T11:25:49;4.97;;;2.63;;
2618;SDS011;1319;52.346;13.096;2023-03-31T11:35:47;6.80;;;2.40;;
2618;SDS011;1319;52.346;13.096;2023-03-31T11:41:16;5.00;;;2.27;;
2618;SDS011;1319;52.346;13.096;2023-03-31T11:43:47;3.73;;;1.90;;
2618;SDS011;1319;52.346;13.096;2023-03-31T11:48:46;4.83;;;2.03;;
2618;SDS011;1319;52.346;13.096;2023-03-31T11:51:13;4.93;;;2.00;;
2618;SDS011;1319;52.346;13.096;2023-03-31T11:53:40;2.20;;;1.80;;
2618;SDS011;1319;52.346;13.096;2023-03-31T11:56:07;5.20;;;2.33;;
2618;SDS011;1319;52.346;13.096;2023-03-31T11:58:39;5.53;;;2.20;;
2618;SDS011;1319;52.346;13.096;2023-03-31T12:03:46;4.77;;;2.27;;
2618;SDS011;1319;52.346;13.096;2023-03-31T12:06:17;4.07;;;2.83;;
2618;SDS011;1319;52.346;13.096;2023-03-31T12:11:12;8.77;;;2.73;;
2618;SDS011;1319;52.346;13.096;2023-03-31T12:13:52;7.60;;;3.30;;
2618;SDS011;1319;52.346;13.096;2023-03-31T12:21:33;4.70;;;2.37;;
2618;SDS011;1319;52.346;13.096;2023-03-31T12:24:00;3.67;;;2.40;;
2618;SDS011;1319;52.346;13.096;2023-03-31T12:26:28;5.67;;;2.90;;
2618;SDS011;1319;52.346;13.096;2023-03-31T12:28:57;4.03;;;3.10;;
2618;SDS011;1319;52.346;13.096;2023-03-31T12:31:25;5.43;;;2.97;;
2618;SDS011;1319;52.346;13.096;2023-03-31T12:33:53;8.47;;;3.30;;
2618;SDS011;1319;52.346;13.096;2023-03-31T12:39:01;4.33;;;3.20;;
2618;SDS011;1319;52.346;13.096;2023-03-31T12:41:38;7.60;;;3.67;;
2618;SDS011;1319;52.346;13.096;2023-03-31T12:49:14;9.23;;;3.60;;
2618;SDS011;1319;52.346;13.096;2023-03-31T12:54:27;5.80;;;3.70;;
2618;SDS011;1319;52.346;13.096;2023-03-31T12:59:28;8.33;;;4.00;;
2618;SDS011;1319;52.346;13.096;2023-03-31T13:02:18;6.60;;;3.50;;
2618;SDS011;1319;52.346;13.096;2023-03-31T13:04:41;3.57;;;3.00;;
2618;SDS011;1319;52.346;13.096;2023-03-31T13:07:52;5.90;;;3.43;;
2618;SDS011;1319;52.346;13.096;2023-03-31T13:10:53;4.17;;;3.33;;
2618;SDS011;1319;52.346;13.096;2023-03-31T13:13:01;4.93;;;3.20;;
2618;SDS011;1319;52.346;13.096;2023-03-31T13:15:27;5.27;;;2.97;;
2618;SDS011;1319;52.346;13.096;2023-03-31T13:18:04;4.67;;;2.60;;
2618;SDS011;1319;52.346;13.096;2023-03-31T13:20:34;4.03;;;2.57;;
2618;SDS011;1319;52.346;13.096;2023-03-31T13:25:36;3.00;;;2.80;;
2618;SDS011;1319;52.346;13.096;2023-03-31T13:28:14;3.37;;;2.90;;
2618;SDS011;1319;52.346;13.096;2023-03-31T13:33:17;6.10;;;3.17;;
2618;SDS011;1319;52.346;13.096;2023-03-31T13:35:45;3.20;;;2.90;;
2618;SDS011;1319;52.346;13.096;2023-03-31T13:51:00;1.97;;;1.87;;
2618;SDS011;1319;52.346;13.096;2023-03-31T13:53:43;4.23;;;2.13;;
2618;SDS011;1319;52.346;13.096;2023-03-31T14:04:17;1.60;;;1.50;;
2618;SDS011;1319;52.346;13.096;2023-03-31T14:06:54;2.67;;;1.50;;
2618;SDS011;1319;52.346;13.096;2023-03-31T14:11:57;1.53;;;1.43;;
2618;SDS011;1319;52.346;13.096;2023-03-31T14:14:23;1.70;;;1.60;;
2618;SDS011;1319;52.346;13.096;2023-03-31T14:16:52;1.60;;;1.50;;
2618;SDS011;1319;52.346;13.096;2023-03-31T14:27:27;3.03;;;1.50;;
2618;SDS011;1319;52.346;13.096;2023-03-31T14:34:55;1.70;;;1.60;;
2618;SDS011;1319;52.346;13.096;2023-03-31T14:37:23;4.23;;;1.40;;
2618;SDS011;1319;52.346;13.096;2023-03-31T14:39:52;1.60;;;1.50;;
2618;SDS011;1319;52.346;13.096;2023-03-31T14:42:21;5.33;;;1.90;;
2618;SDS011;1319;52.346;13.096;2023-03-31T14:44:47;3.37;;;1.60;;
2618;SDS011;1319;52.346;13.096;2023-03-31T14:47:13;2.40;;;1.50;;
2618;SDS011;1319;52.346;13.096;2023-03-31T14:49:38;2.70;;;1.40;;
2618;SDS011;1319;52.346;13.096;2023-03-31T14:52:12;1.33;;;1.23;;
2618;SDS011;1319;52.346;13.096;2023-03-31T14:54:37;2.97;;;1.37;;
2618;SDS011;1319;52.346;13.096;2023-03-31T14:57:02;1.50;;;1.40;;
2618;SDS011;1319;52.346;13.096;2023-03-31T14:59:29;3.17;;;1.50;;
2618;SDS011;1319;52.346;13.096;2023-03-31T15:01:58;2.17;;;1.63;;
2618;SDS011;1319;52.346;13.096;2023-03-31T15:04:26;1.70;;;1.60;;
2618;SDS011;1319;52.346;13.096;2023-03-31T15:06:52;2.17;;;1.30;;
2618;SDS011;1319;52.346;13.096;2023-03-31T15:09:22;5.57;;;2.10;;
2618;SDS011;1319;52.346;13.096;2023-03-31T15:11:52;3.10;;;1.90;;
2618;SDS011;1319;52.346;13.096;2023-03-31T15:14:18;2.60;;;1.70;;
2618;SDS011;1319;52.346;13.096;2023-03-31T15:16:43;2.40;;;1.63;;
2618;SDS011;1319;52.346;13.096;2023-03-31T15:19:19;1.80;;;1.70;;
2618;SDS011;1319;52.346;13.096;2023-03-31T15:21:45;3.00;;;1.70;;
2618;SDS011;1319;52.346;13.096;2023-03-31T15:24:11;4.20;;;1.60;;
2618;SDS011;1319;52.346;13.096;2023-03-31T15:26:38;2.10;;;1.40;;
2618;SDS011;1319;52.346;13.096;2023-03-31T15:29:07;2.03;;;1.50;;
2618;SDS011;1319;52.346;13.096;2023-03-31T15:31:33;1.57;;;1.47;;
2618;SDS011;1319;52.346;13.096;2023-03-31T15:33:59;1.87;;;1.40;;
2618;SDS011;1319;52.346;13.096;2023-03-31T15:36:24;1.50;;;1.40;;
2618;SDS011;1319;52.346;13.096;2023-03-31T15:38:55;2.20;;;1.50;;
2618;SDS011;1319;52.346;13.096;2023-03-31T15:41:21;1.40;;;1.30;;
2618;SDS011;1319;52.346;13.096;2023-03-31T15:46:48;1.40;;;1.30;;
2618;SDS011;1319;52.346;13.096;2023-03-31T15:49:20;1.40;;;1.30;;
2618;SDS011;1319;52.346;13.096;2023-03-31T15:51:46;1.40;;;1.30;;
2618;SDS011;1319;52.346;13.096;2023-03-31T15:56:52;1.30;;;1.30;;
2618;SDS011;1319;52.346;13.096;2023-03-31T15:59:24;2.73;;;1.87;;
2618;SDS011;1319;52.346;13.096;2023-03-31T16:01:50;3.37;;;1.60;;
2618;SDS011;1319;52.346;13.096;2023-03-31T16:04:16;1.90;;;1.80;;
2618;SDS011;1319;52.346;13.096;2023-03-31T16:09:16;1.40;;;1.20;;
2618;SDS011;1319;52.346;13.096;2023-03-31T16:11:48;2.80;;;1.50;;
2618;SDS011;1319;52.346;13.096;2023-03-31T16:14:15;2.07;;;1.60;;
2618;SDS011;1319;52.346;13.096;2023-03-31T16:19:26;2.97;;;1.57;;
2618;SDS011;1319;52.346;13.096;2023-03-31T16:21:53;4.03;;;1.43;;
2618;SDS011;1319;52.346;13.096;2023-03-31T16:24:20;1.47;;;1.40;;
2618;SDS011;1319;52.346;13.096;2023-03-31T16:26:47;1.83;;;1.43;;
2618;SDS011;1319;52.346;13.096;2023-03-31T16:29:19;1.90;;;1.60;;
2618;SDS011;1319;52.346;13.096;2023-03-31T16:31:45;1.70;;;1.60;;
2618;SDS011;1319;52.346;13.096;2023-03-31T16:34:11;1.87;;;1.47;;
2618;SDS011;1319;52.346;13.096;2023-03-31T16:36:36;1.93;;;1.50;;
2618;SDS011;1319;52.346;13.096;2023-03-31T16:39:02;1.57;;;1.47;;
2618;SDS011;1319;52.346;13.096;2023-03-31T16:41:29;2.90;;;1.73;;
2618;SDS011;1319;52.346;13.096;2023-03-31T16:43:55;2.37;;;2.17;;
2618;SDS011;1319;52.346;13.096;2023-03-31T16:46:21;3.33;;;2.03;;
2618;SDS011;1319;52.346;13.096;2023-03-31T16:48:46;3.40;;;2.10;;
2618;SDS011;1319;52.346;13.096;2023-03-31T16:51:11;2.00;;;1.90;;
2618;SDS011;1319;52.346;13.096;2023-03-31T16:53:37;3.43;;;1.97;;
2618;SDS011;1319;52.346;13.096;2023-03-31T16:56:03;2.20;;;2.10;;
2618;SDS011;1319;52.346;13.096;2023-03-31T16:58:28;2.10;;;2.00;;
2618;SDS011;1319;52.346;13.096;2023-03-31T17:00:54;2.03;;;1.93;;
2618;SDS011;1319;52.346;13.096;2023-03-31T17:03:20;2.50;;;2.17;;
2618;SDS011;1319;52.346;13.096;2023-03-31T17:05:46;4.00;;;2.43;;
2618;SDS011;1319;52.346;13.096;2023-03-31T17:08:13;4.07;;;2.20;;
2618;SDS011;1319;52.346;13.096;2023-03-31T17:10:38;2.23;;;2.13;;
2618;SDS011;1319;52.346;13.096;2023-03-31T17:13:04;3.47;;;2.40;;
2618;SDS011;1319;52.346;13.096;2023-03-31T17:15:30;3.60;;;2.37;;
2618;SDS011;1319;52.346;13.096;2023-03-31T17:17:57;3.37;;;2.90;;
2618;SDS011;1319;52.346;13.096;2023-03-31T17:20:23;5.50;;;2.50;;
2618;SDS011;1319;52.346;13.096;2023-03-31T17:22:48;6.57;;;2.80;;
2618;SDS011;1319;52.346;13.096;2023-03-31T17:25:14;2.97;;;2.50;;
2618;SDS011;1319;52.346;13.096;2023-03-31T17:27:39;2.93;;;2.60;;
2618;SDS011;1319;52.346;13.096;2023-03-31T17:30:05;4.30;;;2.90;;
2618;SDS011;1319;52.346;13.096;2023-03-31T17:32:30;5.97;;;3.20;;
2618;SDS011;1319;52.346;13.096;2023-03-31T17:34:56;4.17;;;3.20;;
2618;SDS011;1319;52.346;13.096;2023-03-31T17:37:22;4.47;;;2.87;;
2618;SDS011;1319;52.346;13.096;2023-03-31T17:39:47;3.57;;;2.90;;
2618;SDS011;1319;52.346;13.096;2023-03-31T17:42:12;4.17;;;3.00;;
2618;SDS011;1319;52.346;13.096;2023-03-31T17:44:37;3.63;;;3.20;;
2618;SDS011;1319;52.346;13.096;2023-03-31T17:47:03;3.93;;;2.80;;
2618;SDS011;1319;52.346;13.096;2023-03-31T17:49:28;5.07;;;3.57;;
2618;SDS011;1319;52.346;13.096;2023-03-31T17:51:54;6.00;;;4.20;;
2618;SDS011;1319;52.346;13.096;2023-03-31T17:54:19;6.53;;;3.67;;
2618;SDS011;1319;52.346;13.096;2023-03-31T17:56:44;5.23;;;4.17;;
2618;SDS011;1319;52.346;13.096;2023-03-31T17:59:13;5.13;;;3.33;;
2618;SDS011;1319;52.346;13.096;2023-03-31T18:01:38;3.13;;;2.83;;
2618;SDS011;1319;52.346;13.096;2023-03-31T18:04:04;3.57;;;3.27;;